Time;durP1;ratioP1;P1;durP2;ratioP2;P2;SDS_P1;SDS_P2;PMS_P1;PMS_P2;Temp;Humidity;BMP_temperature;BMP_pressure;BME280_temperature;BME280_humidity;BME280_pressure;Samples;Min_cycle;Max_cycle;Signal;HPM_P1;HPM_P2
2021/04/20 00:00:36;;;;;;;14.43;12.23;;;;;;;9.15;63.12;100489.28;5069546;28;20056;-76
2021/04/20 00:03:40;;;;;;;16.70;12.05;;;;;;;9.13;63.09;100480.53;5064048;28;20071;-77
2021/04/20 00:06:46;;;;;;;15.25;11.68;;;;;;;9.09;63.02;100481.72;5066114;28;20044;-77
2021/04/20 00:09:50;;;;;;;14.02;11.85;;;;;;;9.02;63.26;100475.16;5062821;28;20515;-81
2021/04/20 00:12:54;;;;;;;14.88;11.32;;;;;;;9.00;63.31;100480.66;5063078;28;20044;-77
2021/04/20 00:15:59;;;;;;;13.77;11.15;;;;;;;8.99;63.04;100481.59;5053957;28;20048;-75
2021/04/20 00:19:06;;;;;;;13.45;11.68;;;;;;;9.05;62.82;100481.13;5063948;28;20502;-77
2021/04/20 00:22:10;;;;;;;15.43;11.75;;;;;;;8.97;63.05;100480.03;5062602;28;20052;-76
2021/04/20 00:25:15;;;;;;;13.77;11.52;;;;;;;8.96;62.93;100484.53;5061932;28;20047;-81
2021/04/20 00:28:24;;;;;;;13.02;11.25;;;;;;;8.91;63.24;100477.84;5063976;28;20781;-78
2021/04/20 00:31:29;;;;;;;14.77;11.70;;;;;;;8.91;62.78;100476.00;5062579;28;20064;-77
2021/04/20 00:34:40;;;;;;;14.10;11.88;;;;;;;8.83;63.03;100465.06;5070874;28;20055;-79
2021/04/20 00:37:44;;;;;;;15.18;12.18;;;;;;;8.82;63.01;100471.38;5064648;28;20048;-75
2021/04/20 00:40:49;;;;;;;13.80;11.20;;;;;;;8.81;62.80;100459.00;5062272;28;20052;-76
2021/04/20 00:43:53;;;;;;;14.27;10.50;;;;;;;8.76;63.27;100465.66;5062821;28;20076;-76
2021/04/20 00:46:59;;;;;;;13.15;11.32;;;;;;;8.77;62.81;100468.22;5063685;28;20052;-76
2021/04/20 00:50:03;;;;;;;15.80;12.13;;;;;;;8.73;63.33;100468.56;5063701;28;20044;-77
2021/04/20 00:53:08;;;;;;;13.35;10.93;;;;;;;8.74;63.09;100471.13;5059940;28;20059;-76
2021/04/20 00:56:18;;;;;;;13.95;11.07;;;;;;;8.75;63.08;100474.66;5061917;28;20052;-76
2021/04/20 00:59:22;;;;;;;15.13;11.50;;;;;;;8.70;63.12;100458.97;5067476;28;20506;-80
2021/04/20 01:02:27;;;;;;;15.70;11.07;;;;;;;8.68;63.07;100458.25;5063952;28;20044;-76
2021/04/20 01:05:33;;;;;;;14.52;11.30;;;;;;;8.66;63.14;100457.50;5062592;28;20064;-76
2021/04/20 01:08:40;;;;;;;12.52;10.85;;;;;;;8.66;62.94;100448.63;5063263;28;20103;-76
2021/04/20 01:11:45;;;;;;;12.63;10.73;;;;;;;8.73;62.81;100449.84;5063452;28;20044;-76
2021/04/20 01:14:50;;;;;;;13.05;10.82;;;;;;;8.67;62.82;100453.84;5061993;28;20036;-75
2021/04/20 01:17:54;;;;;;;12.98;11.57;;;;;;;8.59;62.98;100456.28;5055063;28;20518;-75
2021/04/20 01:21:05;;;;;;;13.32;11.00;;;;;;;8.56;63.04;100453.84;5063166;28;20055;-75
2021/04/20 01:24:23;;;;;;;13.80;10.93;;;;;;;8.56;63.13;100445.81;5068008;28;20048;-76
2021/04/20 01:27:28;;;;;;;12.30;10.57;;;;;;;8.60;62.95;100444.59;5072345;28;20586;-78
2021/04/20 01:30:35;;;;;;;12.13;10.45;;;;;;;8.57;63.16;100447.50;5062306;28;20048;-81
2021/04/20 01:33:40;;;;;;;14.13;10.60;;;;;;;8.54;63.05;100446.91;5069063;28;20048;-79
2021/04/20 01:36:45;;;;;;;13.68;10.90;;;;;;;8.53;63.05;100432.69;5063482;28;20478;-82
2021/04/20 01:39:50;;;;;;;12.68;11.38;;;;;;;8.50;63.04;100446.28;5065698;28;20044;-82
2021/04/20 01:42:55;;;;;;;14.07;11.77;;;;;;;8.44;63.32;100431.56;5066082;28;20048;-81
2021/04/20 01:45:59;;;;;;;13.73;11.40;;;;;;;8.43;63.10;100434.38;5063209;28;20048;-83
2021/04/20 01:49:04;;;;;;;12.90;11.15;;;;;;;8.39;62.82;100433.75;5065825;28;20048;-81
2021/04/20 01:52:08;;;;;;;15.02;10.82;;;;;;;8.40;62.54;100434.59;5064741;28;20395;-81
2021/04/20 01:55:13;;;;;;;13.60;11.55;;;;;;;8.35;63.20;100432.28;5066547;28;20048;-82
2021/04/20 01:58:17;;;;;;;13.73;11.75;;;;;;;8.37;63.16;100437.50;5053810;28;20071;-83
2021/04/20 02:01:26;;;;;;;13.80;11.00;;;;;;;8.35;63.24;100442.13;5071450;28;20049;-80
2021/04/20 02:04:30;;;;;;;13.85;11.23;;;;;;;8.31;63.35;100443.34;5064869;28;20052;-82
2021/04/20 02:07:36;;;;;;;13.48;11.20;;;;;;;8.30;63.16;100444.28;5066353;28;20509;-81
2021/04/20 02:10:40;;;;;;;14.40;10.85;;;;;;;8.31;63.29;100435.31;5068245;28;20103;-82
2021/04/20 02:13:45;;;;;;;16.73;11.00;;;;;;;8.29;63.42;100443.47;5068817;28;20047;-83
2021/04/20 02:16:49;;;;;;;12.18;10.65;;;;;;;8.27;63.17;100445.38;5063693;28;20044;-82
2021/04/20 02:19:54;;;;;;;13.20;10.82;;;;;;;8.30;63.05;100450.50;5064215;28;20039;-83
2021/04/20 02:23:02;;;;;;;12.85;10.10;;;;;;;8.30;63.20;100450.50;5065576;28;20048;-82
2021/04/20 02:26:10;;;;;;;12.73;10.50;;;;;;;8.30;63.52;100442.47;5065932;28;20040;-80
2021/04/20 02:29:16;;;;;;;12.82;10.02;;;;;;;8.34;63.57;100445.78;5065174;28;20044;-80
2021/04/20 02:32:20;;;;;;;16.15;11.23;;;;;;;8.34;63.84;100456.47;5070163;28;20399;-79
2021/04/20 02:35:28;;;;;;;13.73;10.70;;;;;;;8.25;65.26;100451.78;5065780;28;20043;-80
2021/04/20 02:38:33;;;;;;;14.55;11.48;;;;;;;8.25;66.01;100458.00;5064468;28;20044;-83
2021/04/20 02:41:44;;;;;;;13.88;10.70;;;;;;;8.18;66.00;100454.09;5064418;28;20067;-79
2021/04/20 02:44:48;;;;;;;15.75;11.35;;;;;;;8.00;67.32;100457.31;5063849;28;20047;-84
2021/04/20 02:47:54;;;;;;;12.55;10.88;;;;;;;7.92;67.33;100452.56;5063486;28;20044;-83
2021/04/20 02:50:59;;;;;;;12.95;11.63;;;;;;;7.84;67.57;100461.13;5065107;28;20051;-81
2021/04/20 02:54:05;;;;;;;15.38;12.10;;;;;;;7.72;67.71;100463.88;5068372;28;20404;-82
2021/04/20 02:57:10;;;;;;;12.02;10.73;;;;;;;7.69;67.92;100464.94;5063582;28;20047;-82
2021/04/20 03:00:17;;;;;;;14.98;11.23;;;;;;;7.77;68.14;100467.06;5064390;28;20048;-82
2021/04/20 03:03:23;;;;;;;13.63;11.77;;;;;;;7.71;68.56;100468.34;5064767;28;20071;-82
2021/04/20 03:06:27;;;;;;;14.85;11.50;;;;;;;7.63;69.23;100467.19;5063328;28;20048;-80
2021/04/20 03:09:32;;;;;;;13.23;11.60;;;;;;;7.59;69.07;100474.59;5063475;28;20044;-79
2021/04/20 03:12:38;;;;;;;13.13;11.40;;;;;;;7.62;69.42;100469.03;5063633;28;20044;-82
2021/04/20 03:15:44;;;;;;;13.60;11.57;;;;;;;7.65;69.21;100466.13;5069770;28;20505;-81
2021/04/20 03:18:48;;;;;;;13.90;11.63;;;;;;;7.62;69.05;100463.69;5062266;28;20044;-81
2021/04/20 03:21:53;;;;;;;14.18;11.32;;;;;;;7.60;69.18;100462.13;5062173;28;20040;-79
2021/04/20 03:25:06;;;;;;;13.77;11.30;;;;;;;7.60;68.97;100462.97;5064249;28;20055;-79
2021/04/20 03:28:10;;;;;;;13.15;10.95;;;;;;;7.62;68.78;100466.38;5063135;28;20048;-81
2021/04/20 03:31:14;;;;;;;15.55;11.32;;;;;;;7.63;68.77;100461.84;5063960;28;20048;-82
2021/04/20 03:34:27;;;;;;;13.85;11.00;;;;;;;7.60;68.43;100462.13;5067415;28;20501;-78
2021/04/20 03:37:56;;;;;;;13.18;11.13;;;;;;;7.58;67.56;100461.38;5064588;28;20039;-80
2021/04/20 03:41:15;;;;;;;13.55;11.18;;;;;;;7.51;67.13;100457.41;5063486;28;20040;-79
2021/04/20 03:44:30;;;;;;;15.90;11.70;;;;;;;7.45;66.20;100456.09;5063649;28;20122;-74
2021/04/20 03:47:50;;;;;;;13.63;10.90;;;;;;;7.36;66.21;100451.38;5063607;28;20048;-82
2021/04/20 03:51:01;;;;;;;14.50;11.52;;;;;;;7.28;66.41;100460.94;5063440;28;20379;-80
2021/04/20 03:54:07;;;;;;;19.13;11.80;;;;;;;7.22;66.82;100448.88;5064057;28;20043;-83
2021/04/20 03:57:15;;;;;;;14.25;11.50;;;;;;;7.15;66.80;100451.16;5062909;28;20048;-82
2021/04/20 04:00:22;;;;;;;17.90;12.32;;;;;;;7.11;67.21;100454.16;5061594;28;20043;-82
2021/04/20 04:03:27;;;;;;;15.77;11.73;;;;;;;7.09;67.48;100450.72;5064028;28;20047;-81
2021/04/20 04:06:37;;;;;;;14.68;12.02;;;;;;;7.04;67.14;100445.72;5054281;28;20396;-77
2021/04/20 04:09:43;;;;;;;13.57;11.98;;;;;;;7.08;66.75;100447.22;5063095;28;20065;-83
2021/04/20 04:12:54;;;;;;;13.48;11.05;;;;;;;7.10;66.78;100447.09;5067977;28;20082;-80
2021/04/20 04:16:04;;;;;;;15.85;11.68;;;;;;;7.11;66.53;100446.97;5062077;28;20044;-83
2021/04/20 04:19:10;;;;;;;13.45;11.07;;;;;;;7.15;66.31;100456.50;5062594;28;20445;-83
2021/04/20 04:22:18;;;;;;;14.75;12.18;;;;;;;7.19;66.38;100451.75;5064461;28;20050;-80
2021/04/20 04:25:29;;;;;;;14.60;11.82;;;;;;;7.21;66.54;100453.34;5063590;28;20056;-82
2021/04/20 04:28:35;;;;;;;13.63;11.70;;;;;;;7.23;66.50;100454.09;5062278;28;20052;-76
2021/04/20 04:31:44;;;;;;;14.38;11.93;;;;;;;7.28;66.42;100452.94;5066467;28;20123;-84
2021/04/20 04:34:49;;;;;;;15.85;11.43;;;;;;;7.31;66.37;100450.88;5080243;28;20059;-78
2021/04/20 04:37:54;;;;;;;20.98;12.48;;;;;;;7.34;66.20;100452.47;5064614;28;20396;-85
2021/04/20 04:41:00;;;;;;;20.35;11.98;;;;;;;7.37;66.03;100457.59;5062798;28;20040;-79
2021/04/20 04:44:05;;;;;;;22.75;12.88;;;;;;;7.34;65.96;100457.81;5062686;28;20048;-83
2021/04/20 04:47:11;;;;;;;24.40;13.27;;;;;;;7.44;65.76;100464.19;5061680;28;20044;-83
2021/04/20 04:50:15;;;;;;;25.77;15.13;;;;;;;7.49;65.38;100465.56;5062290;28;20048;-79
2021/04/20 04:53:21;;;;;;;21.10;13.95;;;;;;;7.49;65.05;100464.69;5065144;28;20051;-83
2021/04/20 04:56:26;;;;;;;22.02;13.68;;;;;;;7.60;64.88;100470.97;5063007;28;20047;-81
2021/04/20 04:59:32;;;;;;;21.92;13.15;;;;;;;7.87;65.83;100473.41;5061810;28;20048;-81
2021/04/20 05:02:39;;;;;;;18.05;12.77;;;;;;;8.11;63.59;100474.25;5064722;28;20044;-82
2021/04/20 05:05:46;;;;;;;14.07;11.82;;;;;;;8.35;62.67;100471.53;5065836;28;20055;-83
2021/04/20 05:08:50;;;;;;;15.90;11.65;;;;;;;8.66;62.36;100475.38;5061381;28;20048;-81
2021/04/20 05:11:54;;;;;;;53.47;44.53;;;;;;;9.01;60.68;100473.47;5063491;28;20056;-80
2021/04/20 05:15:12;;;;;;;95.57;62.20;;;;;;;9.37;59.36;100466.97;5071917;28;20051;-80
2021/04/20 05:18:18;;;;;;;22.25;13.70;;;;;;;9.68;58.03;100471.53;5066793;28;20425;-80
2021/04/20 05:21:23;;;;;;;18.83;11.73;;;;;;;9.91;57.07;100478.53;5066703;28;20048;-78
2021/04/20 05:24:29;;;;;;;19.17;11.55;;;;;;;10.34;56.14;100483.88;5068877;28;20048;-85
2021/04/20 05:27:34;;;;;;;17.55;10.45;;;;;;;10.99;54.11;100475.50;5065098;28;20037;-86
2021/04/20 05:30:38;;;;;;;13.48;10.80;;;;;;;11.50;52.26;100467.34;5063095;28;20041;-83
2021/04/20 05:33:42;;;;;;;17.65;11.02;;;;;;;12.04;51.20;100475.81;5066479;28;20041;-83
2021/04/20 05:36:48;;;;;;;17.63;11.65;;;;;;;12.45;49.70;100476.47;5063529;28;20045;-82
2021/04/20 05:39:52;;;;;;;12.95;11.18;;;;;;;13.01;47.63;100472.81;5064923;28;20041;-80
2021/04/20 05:42:57;;;;;;;16.35;10.75;;;;;;;13.25;47.17;100466.94;5068707;28;20033;-77
2021/04/20 05:46:04;;;;;;;15.60;10.85;;;;;;;13.42;46.46;100462.59;5066720;28;20410;-83
2021/04/20 05:49:10;;;;;;;11.68;9.35;;;;;;;13.59;45.95;100461.78;5066131;28;20041;-80
2021/04/20 05:52:14;;;;;;;12.98;10.35;;;;;;;13.89;45.54;100471.38;5064795;28;20044;-82
2021/04/20 05:55:19;;;;;;;11.52;9.73;;;;;;;14.09;44.92;100464.84;5065357;28;20419;-80
2021/04/20 05:58:23;;;;;;;12.95;9.40;;;;;;;14.13;45.87;100467.06;5068879;28;20056;-74
2021/04/20 06:01:29;;;;;;;15.30;9.95;;;;;;;14.06;46.11;100475.94;5055844;28;20506;-74
2021/04/20 06:04:35;;;;;;;14.35;9.77;;;;;;;14.11;47.77;100474.50;5051153;28;20048;-81
2021/04/20 06:08:00;;;;;;;16.15;10.50;;;;;;;14.70;44.76;100468.44;5070525;28;20067;-82
2021/04/20 06:11:07;;;;;;;18.00;9.98;;;;;;;15.05;44.48;100469.31;5075256;28;20390;-80
2021/04/20 06:14:12;;;;;;;14.88;9.80;;;;;;;15.47;43.25;100462.13;5071372;28;20048;-77
2021/04/20 06:17:17;;;;;;;13.65;10.38;;;;;;;15.19;43.49;100469.56;5065372;28;20064;-76
2021/04/20 06:20:23;;;;;;;13.30;10.23;;;;;;;16.64;40.38;100460.97;5070127;28;20045;-78
2021/04/20 06:23:29;;;;;;;18.67;9.95;;;;;;;16.36;41.03;100462.28;5062807;28;20045;-81
2021/04/20 06:26:36;;;;;;;14.23;10.23;;;;;;;15.87;42.56;100467.66;5064020;28;20052;-86
2021/04/20 06:29:41;;;;;;;17.52;10.68;;;;;;;15.95;42.72;100473.06;5066445;28;20036;-83
2021/04/20 06:32:45;;;;;;;17.17;10.60;;;;;;;15.87;42.85;100467.66;5074397;28;20506;-82
2021/04/20 06:35:54;;;;;;;16.52;10.35;;;;;;;15.69;43.47;100468.78;5071268;28;20056;-77
2021/04/20 06:38:59;;;;;;;14.25;9.00;;;;;;;15.65;43.19;100475.53;5067074;28;20049;-77
2021/04/20 06:42:09;;;;;;;14.73;10.00;;;;;;;15.76;42.92;100476.09;5054502;28;20419;-82
2021/04/20 06:45:18;;;;;;;12.40;9.88;;;;;;;16.14;42.77;100472.78;5054552;28;20048;-83
2021/04/20 06:48:38;;;;;;;24.58;9.98;;;;;;;16.46;42.10;100476.53;5064810;28;20071;-78
2021/04/20 06:51:53;;;;;;;13.63;9.60;;;;;;;17.19;40.50;100471.88;5054420;28;20400;-76
2021/04/20 06:55:10;;;;;;;13.77;10.00;;;;;;;19.14;36.48;100467.66;5064096;28;20514;-77
2021/04/20 06:58:29;;;;;;;13.68;9.82;;;;;;;18.96;37.05;100475.34;5062349;28;20049;-76
2021/04/20 07:01:42;;;;;;;13.25;10.35;;;;;;;21.82;31.97;100469.44;5058781;28;20060;-75
2021/04/20 07:04:51;;;;;;;12.88;9.68;;;;;;;25.07;27.24;100451.53;5053970;28;20049;-75
2021/04/20 07:08:08;;;;;;;14.80;9.27;;;;;;;25.39;26.43;100462.41;5053112;28;20051;-76
2021/04/20 07:11:16;;;;;;;12.38;9.18;;;;;;;28.54;23.03;100461.44;5053514;28;20048;-76
2021/04/20 07:14:25;;;;;;;11.93;8.23;;;;;;;32.45;19.62;100456.56;5054119;28;20067;-75
2021/04/20 07:17:35;;;;;;;12.63;8.35;;;;;;;34.72;17.69;100455.97;5064404;28;20075;-77
2021/04/20 07:21:08;;;;;;;11.40;8.05;;;;;;;36.57;15.78;100444.94;5073674;28;20051;-77
2021/04/20 07:24:32;;;;;;;11.57;8.05;;;;;;;38.08;14.99;100451.31;5073672;28;20059;-76
2021/04/20 07:28:09;;;;;;;13.65;7.53;;;;;;;36.97;15.56;100455.47;5072746;28;20052;-76
2021/04/20 07:31:50;;;;;;;11.88;7.82;;;;;;;36.92;15.46;100450.75;5072872;28;20044;-77
2021/04/20 07:35:12;;;;;;;14.55;8.02;;;;;;;38.59;14.33;100452.97;5065293;28;20048;-76
2021/04/20 07:38:28;;;;;;;11.38;7.65;;;;;;;40.97;13.15;100451.41;5071519;28;20430;-80
2021/04/20 07:41:46;;;;;;;11.98;8.05;;;;;;;40.32;13.39;100451.53;5073969;28;20052;-81
2021/04/20 07:45:03;;;;;;;11.02;8.00;;;;;;;39.72;13.69;100451.41;5056871;28;20063;-80
2021/04/20 07:48:34;;;;;;;12.73;8.45;;;;;;;39.38;13.56;100452.03;5056545;28;20425;-83
2021/04/20 07:51:56;;;;;;;14.63;8.90;;;;;;;40.43;13.57;100438.81;5053884;28;20044;-77
2021/04/20 07:55:15;;;;;;;15.30;10.32;;;;;;;40.05;13.49;100441.41;5053786;28;20051;-81
2021/04/20 07:58:21;;;;;;;13.00;9.20;;;;;;;39.59;13.49;100444.72;5057075;28;20040;-76
2021/04/20 08:01:32;;;;;;;14.30;9.23;;;;;;;42.67;11.87;100446.06;5073224;28;20056;-77
2021/04/20 08:04:53;;;;;;;12.77;9.48;;;;;;;41.23;12.47;100446.56;5072727;28;20052;-76
2021/04/20 08:08:27;;;;;;;29.30;26.25;;;;;;;40.79;13.40;100446.94;5193838;27;20353;-74
2021/04/20 08:11:42;;;;;;;27.90;25.05;;;;;;;40.52;13.29;100442.47;5172939;27;20047;-75
2021/04/20 08:15:07;;;;;;;12.10;9.85;;;;;;;41.84;12.68;100433.03;5173027;27;20057;-78
2021/04/20 08:18:34;;;;;;;14.80;9.45;;;;;;;40.95;12.82;100434.00;5139443;27;20046;-74
2021/04/20 08:21:43;;;;;;;13.52;10.18;;;;;;;40.41;13.40;100440.31;5147488;27;20041;-82
2021/04/20 08:24:55;;;;;;;14.30;10.77;;;;;;;40.31;12.76;100435.00;5172761;27;20046;-74
2021/04/20 08:28:29;;;;;;;16.88;10.32;;;;;;;38.68;13.59;100437.88;5172093;27;20511;-76
2021/04/20 08:31:39;;;;;;;12.98;9.98;;;;;;;40.22;12.99;100438.63;5169253;27;20053;-77
2021/04/20 08:34:54;;;;;;;12.70;9.63;;;;;;;39.13;13.79;100435.03;5152162;27;20058;-79
2021/04/20 08:38:02;;;;;;;18.88;11.82;;;;;;;36.39;15.41;100433.41;5171334;27;20041;-78
2021/04/20 08:41:17;;;;;;;16.40;13.20;;;;;;;37.34;14.73;100432.09;5160145;27;20111;-80
2021/04/20 08:44:36;;;;;;;17.65;10.20;;;;;;;35.54;15.88;100431.75;5172791;27;20061;-77
2021/04/20 08:48:01;;;;;;;18.08;10.70;;;;;;;31.32;19.21;100436.13;5171734;27;20045;-76
2021/04/20 08:51:28;;;;;;;17.83;11.13;;;;;;;29.23;21.61;100434.44;5171097;27;20049;-78
2021/04/20 08:54:42;;;;;;;15.18;11.05;;;;;;;28.09;22.94;100441.28;5172389;27;20050;-75
2021/04/20 08:58:07;;;;;;;19.77;12.35;;;;;;;25.19;26.13;100440.63;5171473;27;20045;-76
2021/04/20 09:01:53;;;;;;;19.15;12.57;;;;;;;24.66;26.66;100440.28;5172955;27;20670;-75
2021/04/20 09:05:33;;;;;;;19.33;12.40;;;;;;;23.95;28.14;100443.25;5124006;27;20157;-75
2021/04/20 09:08:44;;;;;;;21.80;12.48;;;;;;;23.56;29.48;100439.84;5138076;27;20066;-75
2021/04/20 09:11:54;;;;;;;21.65;12.05;;;;;;;22.83;30.44;100436.41;5151157;27;20065;-75
2021/04/20 09:15:00;;;;;;;18.98;12.52;;;;;;;22.10;32.37;100444.75;5171237;27;20062;-75
2021/04/20 09:18:08;;;;;;;21.10;11.70;;;;;;;22.28;32.12;100443.09;5163721;27;20042;-74
2021/04/20 09:21:26;;;;;;;20.38;12.73;;;;;;;22.37;30.62;100435.50;5157234;27;20046;-74
2021/04/20 09:24:40;;;;;;;23.05;13.27;;;;;;;21.77;31.41;100445.47;5157523;27;20041;-76
2021/04/20 09:28:12;;;;;;;23.80;13.57;;;;;;;22.13;30.21;100441.59;5156943;27;20512;-74
2021/04/20 09:31:18;;;;;;;21.83;13.57;;;;;;;22.04;31.69;100430.00;5157954;27;20062;-74
2021/04/20 09:34:27;;;;;;;23.55;13.38;;;;;;;22.04;31.64;100435.47;5157062;27;20062;-75
2021/04/20 09:37:38;;;;;;;20.52;12.95;;;;;;;21.75;32.15;100433.88;5155788;27;20499;-74
2021/04/20 09:40:46;;;;;;;23.10;13.30;;;;;;;21.54;32.05;100433.16;5156918;27;20046;-73
2021/04/20 09:44:28;;;;;;;22.45;12.75;;;;;;;21.14;34.51;100435.69;5153787;27;20612;-76
2021/04/20 09:47:53;;;;;;;22.90;14.15;;;;;;;20.81;33.33;100431.03;5153802;27;20053;-73
2021/04/20 09:51:13;;;;;;;28.55;14.48;;;;;;;20.55;33.33;100437.09;5145893;27;20045;-75
2021/04/20 09:54:24;;;;;;;28.52;14.85;;;;;;;20.51;34.27;100431.22;5155781;27;20503;-74
2021/04/20 09:57:33;;;;;;;30.90;15.43;;;;;;;20.17;35.24;100433.78;5157110;27;20038;-82
2021/04/20 10:00:42;;;;;;;26.98;16.02;;;;;;;19.81;35.67;100441.16;5156002;27;20038;-75
2021/04/20 10:04:07;;;;;;;29.08;16.23;;;;;;;19.88;34.89;100432.00;5156580;27;20504;-76
2021/04/20 10:07:34;;;;;;;24.00;14.73;;;;;;;20.20;35.18;100427.94;5156548;27;20063;-79
2021/04/20 10:10:54;;;;;;;26.42;14.45;;;;;;;20.20;34.66;100419.78;5156565;27;20589;-76
2021/04/20 10:14:32;;;;;;;24.75;15.85;;;;;;;20.32;34.29;100425.59;5155666;27;20511;-73
2021/04/20 10:17:44;;;;;;;25.23;14.85;;;;;;;20.62;33.85;100419.75;5156452;27;20053;-73
2021/04/20 10:21:27;;;;;;;25.33;13.77;;;;;;;20.81;34.31;100418.25;5156604;27;20062;-73
2021/04/20 10:24:35;;;;;;;22.98;14.90;;;;;;;20.96;31.89;100427.13;5156037;27;20049;-73
2021/04/20 10:27:43;;;;;;;27.40;15.90;;;;;;;20.90;30.18;100408.84;5156044;27;20046;-74
2021/04/20 10:30:52;;;;;;;22.90;15.75;;;;;;;20.81;29.96;100409.19;5155260;27;20050;-73
2021/04/20 10:33:59;;;;;;;25.70;15.18;;;;;;;20.07;34.25;100408.75;5155982;27;20057;-73
2021/04/20 10:37:04;;;;;;;22.63;15.90;;;;;;;19.59;33.77;100407.59;5156016;27;20059;-74
2021/04/20 10:40:15;;;;;;;25.52;15.48;;;;;;;19.55;34.84;100395.41;5155656;27;20500;-73
2021/04/20 10:43:22;;;;;;;22.85;14.70;;;;;;;19.65;34.87;100395.09;5155978;27;20104;-72
2021/04/20 10:46:29;;;;;;;24.65;15.73;;;;;;;19.65;34.54;100392.38;5155576;27;20511;-72
2021/04/20 10:49:34;;;;;;;25.48;15.90;;;;;;;19.49;34.66;100396.16;5155981;27;20054;-73
2021/04/20 10:52:40;;;;;;;29.30;18.27;;;;;;;19.31;33.82;100399.25;5155823;27;20061;-73
2021/04/20 10:56:01;;;;;;;25.17;16.48;;;;;;;19.13;34.74;100396.09;5155760;27;20507;-73
2021/04/20 10:59:08;;;;;;;27.20;17.00;;;;;;;19.20;34.79;100398.88;5155762;27;20050;-73
2021/04/20 11:02:22;;;;;;;29.05;16.30;;;;;;;19.35;34.94;100394.28;5154754;27;20512;-75
2021/04/20 11:05:29;;;;;;;26.77;17.85;;;;;;;19.18;35.75;100382.72;5155736;27;20114;-74
2021/04/20 11:08:39;;;;;;;24.25;16.70;;;;;;;19.06;34.92;100389.69;5155421;27;20053;-77
2021/04/20 11:11:47;;;;;;;22.35;14.07;;;;;;;19.16;33.48;100382.09;5151041;27;20045;-74
2021/04/20 11:14:53;;;;;;;22.30;14.95;;;;;;;19.29;32.48;100378.69;5154923;27;20043;-73
2021/04/20 11:18:09;;;;;;;21.15;15.23;;;;;;;19.24;32.45;100378.41;5154972;27;20046;-73
2021/04/20 11:21:24;;;;;;;22.27;14.27;;;;;;;19.42;32.87;100374.31;5155085;27;20062;-73
2021/04/20 11:24:35;;;;;;;27.77;17.40;;;;;;;19.46;33.35;100377.47;5154907;27;20412;-74
2021/04/20 11:27:41;;;;;;;24.10;16.92;;;;;;;19.42;33.18;100370.72;5155401;27;20039;-85
2021/04/20 11:30:53;;;;;;;22.58;12.85;;;;;;;19.31;30.04;100361.13;5154905;27;20069;-73
2021/04/20 11:34:10;;;;;;;16.13;11.02;;;;;;;19.40;29.79;100367.34;5154403;27;20061;-78
2021/04/20 11:37:21;;;;;;;14.13;10.02;;;;;;;19.46;28.08;100355.69;5151008;27;20043;-75
2021/04/20 11:40:38;;;;;;;12.13;8.63;;;;;;;19.68;28.19;100354.69;5152918;27;20045;-76
2021/04/20 11:43:44;;;;;;;21.33;12.95;;;;;;;19.76;29.77;100356.44;5151997;27;20062;-76
2021/04/20 11:46:51;;;;;;;25.88;15.98;;;;;;;19.46;31.26;100358.41;5153268;27;20053;-75
2021/04/20 11:50:03;;;;;;;25.60;16.27;;;;;;;19.14;30.62;100358.81;5152893;27;20487;-75
2021/04/20 11:53:11;;;;;;;20.33;13.35;;;;;;;19.22;31.05;100356.00;5152653;27;20039;-75
2021/04/20 11:56:16;;;;;;;21.50;13.93;;;;;;;19.28;30.97;100350.63;5152676;27;20058;-75
2021/04/20 11:59:22;;;;;;;19.00;13.35;;;;;;;19.37;31.18;100352.25;5152806;27;20042;-75
2021/04/20 12:02:29;;;;;;;18.42;11.88;;;;;;;19.40;30.09;100341.00;5153243;27;20043;-75
2021/04/20 12:05:35;;;;;;;18.17;12.75;;;;;;;19.56;31.67;100356.22;5153439;27;20049;-74
2021/04/20 12:08:43;;;;;;;19.67;13.38;;;;;;;19.71;31.06;100345.28;5155340;27;20046;-74
2021/04/20 12:11:48;;;;;;;22.08;13.68;;;;;;;19.89;30.42;100335.63;5155126;27;20053;-74
2021/04/20 12:14:53;;;;;;;21.40;13.18;;;;;;;20.02;30.72;100337.66;5142372;27;20050;-74
2021/04/20 12:17:58;;;;;;;19.67;13.63;;;;;;;20.10;30.21;100334.75;5154909;27;20062;-74
2021/04/20 12:21:12;;;;;;;18.83;13.02;;;;;;;20.13;30.65;100343.41;5154820;27;20046;-74
2021/04/20 12:24:21;;;;;;;23.83;14.45;;;;;;;20.11;31.38;100333.72;5154812;27;20378;-74
2021/04/20 12:27:30;;;;;;;20.00;12.60;;;;;;;20.11;31.21;100329.13;5154626;27;20108;-74
2021/04/20 12:30:36;;;;;;;20.15;13.13;;;;;;;20.27;31.14;100327.19;5148272;27;20410;-74
2021/04/20 12:33:41;;;;;;;19.30;13.40;;;;;;;20.23;30.62;100334.06;5121400;28;20061;-74
2021/04/20 12:36:51;;;;;;;22.20;14.68;;;;;;;20.09;30.37;100324.91;5136223;27;20042;-75
2021/04/20 12:40:08;;;;;;;21.83;14.55;;;;;;;19.93;29.92;100333.34;5136839;27;20065;-77
2021/04/20 12:43:17;;;;;;;20.50;13.30;;;;;;;19.97;29.54;100324.56;5145468;27;20050;-80
2021/04/20 12:46:27;;;;;;;17.42;13.05;;;;;;;20.13;31.52;100327.03;5142683;27;20057;-74
2021/04/20 12:49:34;;;;;;;19.65;13.15;;;;;;;20.36;30.64;100328.72;5137054;27;20524;-77
2021/04/20 12:52:44;;;;;;;17.63;11.75;;;;;;;20.46;30.00;100330.06;5133425;27;20492;-75
2021/04/20 12:55:53;;;;;;;17.13;12.00;;;;;;;20.52;29.57;100323.81;5137762;27;20469;-79
2021/04/20 12:59:00;;;;;;;13.50;10.25;;;;;;;20.57;28.99;100326.78;5136802;27;20051;-75
2021/04/20 13:02:06;;;;;;;12.23;9.32;;;;;;;20.67;28.86;100329.13;5144991;27;20061;-75
2021/04/20 13:05:12;;;;;;;11.23;6.90;;;;;;;20.53;31.54;100330.94;5144644;27;20050;-78
2021/04/20 13:08:19;;;;;;;8.73;5.18;;;;;;;20.33;33.65;100329.09;5157455;27;20065;-76
2021/04/20 13:11:37;;;;;;;8.88;4.35;;;;;;;20.35;34.44;100324.28;5157160;27;20053;-80
2021/04/20 13:14:48;;;;;;;6.70;3.70;;;;;;;20.10;33.51;100324.69;5157484;27;20045;-76
2021/04/20 13:17:59;;;;;;;5.13;3.10;;;;;;;20.15;34.57;100331.47;5140417;27;20050;-76
2021/04/20 13:21:06;;;;;;;9.32;2.95;;;;;;;20.28;34.48;100328.84;5156101;27;20496;-76
2021/04/20 13:24:13;;;;;;;10.40;4.75;;;;;;;20.33;33.19;100334.56;5140668;27;20050;-76
2021/04/20 13:27:19;;;;;;;6.20;4.47;;;;;;;19.91;34.14;100324.53;5157018;27;20042;-77
2021/04/20 13:30:27;;;;;;;6.20;4.50;;;;;;;19.89;34.22;100329.34;5156647;27;20046;-77
2021/04/20 13:33:33;;;;;;;7.55;4.32;;;;;;;19.96;35.26;100336.53;5156473;27;20062;-80
2021/04/20 13:36:48;;;;;;;12.48;5.72;;;;;;;20.02;33.57;100332.19;5138443;27;20050;-79
2021/04/20 13:39:55;;;;;;;11.02;5.05;;;;;;;20.01;34.56;100330.50;5136602;27;20054;-81
2021/04/20 13:43:02;;;;;;;6.32;4.63;;;;;;;20.11;34.37;100331.84;5136006;27;20057;-83
2021/04/20 13:46:08;;;;;;;7.50;6.03;;;;;;;19.94;33.78;100322.28;5136278;27;20499;-80
2021/04/20 13:49:13;;;;;;;13.05;6.65;;;;;;;19.68;34.08;100319.28;5139209;27;20049;-77
2021/04/20 13:52:20;;;;;;;10.80;6.32;;;;;;;19.67;34.59;100327.66;5138296;27;20141;-77
2021/04/20 13:55:31;;;;;;;7.88;5.20;;;;;;;19.55;35.04;100319.16;5123556;27;20057;-82
2021/04/20 13:59:01;;;;;;;9.73;5.82;;;;;;;19.67;34.67;100320.34;5123514;27;20051;-83
2021/04/20 14:02:12;;;;;;;8.10;5.65;;;;;;;19.71;34.52;100324.34;5123462;27;20054;-82
2021/04/20 14:05:18;;;;;;;10.25;4.78;;;;;;;19.82;33.98;100317.53;5135605;27;20486;-76
2021/04/20 14:08:31;;;;;;;9.07;5.78;;;;;;;19.62;32.38;100311.91;5135845;27;20046;-76
2021/04/20 14:11:42;;;;;;;10.40;6.13;;;;;;;19.49;32.42;100309.03;5136055;27;20070;-78
2021/04/20 14:15:06;;;;;;;8.75;5.13;;;;;;;19.30;32.35;100309.63;5123074;27;20424;-75
2021/04/20 14:18:15;;;;;;;10.50;5.97;;;;;;;19.23;33.29;100308.72;5122883;27;20054;-77
2021/04/20 14:21:21;;;;;;;7.28;5.22;;;;;;;19.31;33.53;100308.56;5135329;27;20046;-78
2021/04/20 14:24:26;;;;;;;6.50;4.22;;;;;;;19.40;33.58;100302.03;5122892;27;20046;-79
2021/04/20 14:27:32;;;;;;;9.18;5.32;;;;;;;19.30;32.91;100310.47;5137004;27;20394;-84
2021/04/20 14:30:37;;;;;;;8.25;5.00;;;;;;;19.30;32.51;100304.19;5142743;27;20042;-81